sensor_id;sensor_type;location;lat;lon;timestamp;P1;durP1;ratioP1;P2;durP2;ratioP2
40012;SDS011;37387;42.672;23.334;2022-10-16T00:00:27;25.4;;;10.7;;
40012;SDS011;37387;42.672;23.334;2022-10-16T00:01:28;17.1;;;11.2;;
40012;SDS011;37387;42.672;23.334;2022-10-16T00:02:26;23.8;;;11.5;;
40012;SDS011;37387;42.672;23.334;2022-10-16T00:03:26;23.8;;;11.4;;
40012;SDS011;37387;42.672;23.334;2022-10-16T00:04:26;20.4;;;11.6;;
40012;SDS011;37387;42.672;23.334;2022-10-16T00:05:26;22.9;;;11.3;;
40012;SDS011;37387;42.672;23.334;2022-10-16T00:06:27;19.7;;;11.1;;
40012;SDS011;37387;42.672;23.334;2022-10-16T00:07:26;20.7;;;11.5;;
40012;SDS011;37387;42.672;23.334;2022-10-16T00:08:26;23.0;;;11.7;;
40012;SDS011;37387;42.672;23.334;2022-10-16T00:09:26;23.0;;;11.6;;
40012;SDS011;37387;42.672;23.334;2022-10-16T00:10:26;22.7;;;11.3;;
40012;SDS011;37387;42.672;23.334;2022-10-16T00:11:27;21.6;;;11.2;;
40012;SDS011;37387;42.672;23.334;2022-10-16T00:12:26;21.6;;;11.6;;
40012;SDS011;37387;42.672;23.334;2022-10-16T00:13:26;22.8;;;11.9;;
40012;SDS011;37387;42.672;23.334;2022-10-16T00:14:26;22.6;;;12.7;;
40012;SDS011;37387;42.672;23.334;2022-10-16T00:16:26;22.7;;;12.5;;
40012;SDS011;37387;42.672;23.334;2022-10-16T00:17:26;22.9;;;12.9;;
40012;SDS011;37387;42.672;23.334;2022-10-16T00:18:26;26.7;;;12.3;;
40012;SDS011;37387;42.672;23.334;2022-10-16T00:19:26;20.7;;;12.1;;
40012;SDS011;37387;42.672;23.334;2022-10-16T00:20:26;20.7;;;12.2;;
40012;SDS011;37387;42.672;23.334;2022-10-16T00:21:26;24.6;;;11.9;;
40012;SDS011;37387;42.672;23.334;2022-10-16T00:22:25;21.8;;;12.0;;
40012;SDS011;37387;42.672;23.334;2022-10-16T00:23:25;22.4;;;12.9;;
40012;SDS011;37387;42.672;23.334;2022-10-16T00:24:25;21.4;;;12.1;;
40012;SDS011;37387;42.672;23.334;2022-10-16T00:25:25;21.4;;;11.7;;
40012;SDS011;37387;42.672;23.334;2022-10-16T00:26:26;19.8;;;12.1;;
40012;SDS011;37387;42.672;23.334;2022-10-16T00:27:25;19.8;;;11.7;;
40012;SDS011;37387;42.672;23.334;2022-10-16T00:28:25;25.1;;;12.6;;
40012;SDS011;37387;42.672;23.334;2022-10-16T00:29:25;25.1;;;12.2;;
40012;SDS011;37387;42.672;23.334;2022-10-16T00:30:25;23.3;;;11.6;;
40012;SDS011;37387;42.672;23.334;2022-10-16T00:31:25;20.0;;;12.1;;
40012;SDS011;37387;42.672;23.334;2022-10-16T00:32:25;21.6;;;11.9;;
40012;SDS011;37387;42.672;23.334;2022-10-16T00:33:25;21.3;;;12.7;;
40012;SDS011;37387;42.672;23.334;2022-10-16T00:34:25;20.7;;;11.8;;
40012;SDS011;37387;42.672;23.334;2022-10-16T00:35:25;20.7;;;12.1;;
40012;SDS011;37387;42.672;23.334;2022-10-16T00:36:25;24.0;;;11.7;;
40012;SDS011;37387;42.672;23.334;2022-10-16T00:37:25;21.9;;;11.8;;
40012;SDS011;37387;42.672;23.334;2022-10-16T00:38:25;20.4;;;11.1;;
40012;SDS011;37387;42.672;23.334;2022-10-16T00:39:25;20.2;;;11.5;;
40012;SDS011;37387;42.672;23.334;2022-10-16T00:40:25;21.9;;;12.3;;
40012;SDS011;37387;42.672;23.334;2022-10-16T00:41:25;21.4;;;11.9;;
40012;SDS011;37387;42.672;23.334;2022-10-16T00:42:24;24.3;;;12.2;;
40012;SDS011;37387;42.672;23.334;2022-10-16T00:43:33;24.3;;;11.8;;
40012;SDS011;37387;42.672;23.334;2022-10-16T00:45:24;22.3;;;12.3;;
40012;SDS011;37387;42.672;23.334;2022-10-16T00:46:25;22.3;;;12.0;;
40012;SDS011;37387;42.672;23.334;2022-10-16T00:47:26;20.7;;;11.8;;
40012;SDS011;37387;42.672;23.334;2022-10-16T00:48:24;22.1;;;12.0;;
40012;SDS011;37387;42.672;23.334;2022-10-16T00:50:27;22.1;;;12.3;;
40012;SDS011;37387;42.672;23.334;2022-10-16T00:51:25;22.7;;;11.9;;
40012;SDS011;37387;42.672;23.334;2022-10-16T00:52:24;21.8;;;12.2;;
40012;SDS011;37387;42.672;23.334;2022-10-16T00:53:24;22.7;;;11.9;;
40012;SDS011;37387;42.672;23.334;2022-10-16T00:54:26;22.6;;;12.8;;
40012;SDS011;37387;42.672;23.334;2022-10-16T00:55:24;22.6;;;12.1;;
40012;SDS011;37387;42.672;23.334;2022-10-16T00:56:24;25.7;;;12.5;;
40012;SDS011;37387;42.672;23.334;2022-10-16T00:58:24;24.5;;;12.4;;
40012;SDS011;37387;42.672;23.334;2022-10-16T00:59:25;22.3;;;12.3;;
40012;SDS011;37387;42.672;23.334;2022-10-16T01:00:25;24.1;;;12.2;;
40012;SDS011;37387;42.672;23.334;2022-10-16T01:01:23;22.9;;;11.9;;
40012;SDS011;37387;42.672;23.334;2022-10-16T01:02:23;22.9;;;11.8;;
40012;SDS011;37387;42.672;23.334;2022-10-16T01:03:25;23.8;;;12.2;;
40012;SDS011;37387;42.672;23.334;2022-10-16T01:04:23;24.8;;;12.8;;
40012;SDS011;37387;42.672;23.334;2022-10-16T01:05:24;23.7;;;11.7;;
40012;SDS011;37387;42.672;23.334;2022-10-16T01:06:24;22.8;;;12.1;;
40012;SDS011;37387;42.672;23.334;2022-10-16T01:07:27;22.4;;;13.1;;
40012;SDS011;37387;42.672;23.334;2022-10-16T01:08:25;26.9;;;11.7;;
40012;SDS011;37387;42.672;23.334;2022-10-16T01:09:23;28.5;;;13.3;;
40012;SDS011;37387;42.672;23.334;2022-10-16T01:10:26;28.5;;;11.9;;
40012;SDS011;37387;42.672;23.334;2022-10-16T01:11:26;21.4;;;12.9;;
40012;SDS011;37387;42.672;23.334;2022-10-16T01:12:26;22.4;;;12.5;;
40012;SDS011;37387;42.672;23.334;2022-10-16T01:13:24;23.3;;;12.9;;
40012;SDS011;37387;42.672;23.334;2022-10-16T01:15:24;25.9;;;12.4;;
40012;SDS011;37387;42.672;23.334;2022-10-16T01:16:26;24.2;;;13.6;;
40012;SDS011;37387;42.672;23.334;2022-10-16T01:17:25;23.2;;;12.7;;
40012;SDS011;37387;42.672;23.334;2022-10-16T01:18:23;23.2;;;12.3;;
40012;SDS011;37387;42.672;23.334;2022-10-16T01:19:26;24.1;;;12.8;;
40012;SDS011;37387;42.672;23.334;2022-10-16T01:20:24;24.1;;;12.2;;
40012;SDS011;37387;42.672;23.334;2022-10-16T01:21:23;24.1;;;11.9;;
40012;SDS011;37387;42.672;23.334;2022-10-16T01:22:23;22.3;;;12.8;;
40012;SDS011;37387;42.672;23.334;2022-10-16T01:23:27;27.2;;;13.2;;
40012;SDS011;37387;42.672;23.334;2022-10-16T01:24:26;22.7;;;12.9;;
40012;SDS011;37387;42.672;23.334;2022-10-16T01:25:23;25.3;;;14.1;;
40012;SDS011;37387;42.672;23.334;2022-10-16T01:26:27;25.3;;;13.4;;
40012;SDS011;37387;42.672;23.334;2022-10-16T01:27:22;25.0;;;15.2;;
40012;SDS011;37387;42.672;23.334;2022-10-16T01:28:23;29.3;;;17.2;;
40012;SDS011;37387;42.672;23.334;2022-10-16T01:29:23;31.8;;;18.3;;
40012;SDS011;37387;42.672;23.334;2022-10-16T01:30:23;30.2;;;15.6;;
40012;SDS011;37387;42.672;23.334;2022-10-16T01:31:23;30.2;;;13.6;;
40012;SDS011;37387;42.672;23.334;2022-10-16T01:32:24;26.3;;;12.5;;
40012;SDS011;37387;42.672;23.334;2022-10-16T01:33:23;26.3;;;12.7;;
40012;SDS011;37387;42.672;23.334;2022-10-16T01:34:23;26.5;;;12.5;;
40012;SDS011;37387;42.672;23.334;2022-10-16T01:35:22;26.5;;;12.2;;
40012;SDS011;37387;42.672;23.334;2022-10-16T01:36:23;22.7;;;12.1;;
40012;SDS011;37387;42.672;23.334;2022-10-16T01:37:31;22.7;;;12.8;;
40012;SDS011;37387;42.672;23.334;2022-10-16T01:38:23;23.3;;;12.4;;
40012;SDS011;37387;42.672;23.334;2022-10-16T01:39:22;26.5;;;12.3;;
40012;SDS011;37387;42.672;23.334;2022-10-16T01:41:22;24.7;;;13.3;;
40012;SDS011;37387;42.672;23.334;2022-10-16T01:42:22;24.0;;;12.4;;
40012;SDS011;37387;42.672;23.334;2022-10-16T01:43:22;22.2;;;12.9;;
40012;SDS011;37387;42.672;23.334;2022-10-16T01:44:22;22.0;;;12.2;;
40012;SDS011;37387;42.672;23.334;2022-10-16T01:45:21;27.5;;;13.4;;
40012;SDS011;37387;42.672;23.334;2022-10-16T01:46:21;27.5;;;12.5;;
40012;SDS011;37387;42.672;23.334;2022-10-16T01:48:21;23.6;;;12.6;;
40012;SDS011;37387;42.672;23.334;2022-10-16T01:49:21;23.6;;;13.3;;
40012;SDS011;37387;42.672;23.334;2022-10-16T01:50:21;25.1;;;14.5;;
40012;SDS011;37387;42.672;23.334;2022-10-16T01:51:21;29.0;;;13.1;;
40012;SDS011;37387;42.672;23.334;2022-10-16T01:52:21;29.4;;;13.2;;
40012;SDS011;37387;42.672;23.334;2022-10-16T01:53:20;26.3;;;13.6;;
40012;SDS011;37387;42.672;23.334;2022-10-16T01:54:20;23.8;;;13.3;;
40012;SDS011;37387;42.672;23.334;2022-10-16T01:55:22;23.8;;;13.5;;
40012;SDS011;37387;42.672;23.334;2022-10-16T01:56:20;26.4;;;12.8;;
40012;SDS011;37387;42.672;23.334;2022-10-16T01:57:21;21.6;;;13.4;;
40012;SDS011;37387;42.672;23.334;2022-10-16T01:58:20;25.3;;;13.3;;
40012;SDS011;37387;42.672;23.334;2022-10-16T01:59:21;25.0;;;13.5;;
40012;SDS011;37387;42.672;23.334;2022-10-16T02:00:20;25.4;;;12.8;;
40012;SDS011;37387;42.672;23.334;2022-10-16T02:01:20;23.8;;;12.9;;
40012;SDS011;37387;42.672;23.334;2022-10-16T02:02:20;22.0;;;13.1;;
40012;SDS011;37387;42.672;23.334;2022-10-16T02:03:20;23.4;;;13.2;;
40012;SDS011;37387;42.672;23.334;2022-10-16T02:04:21;23.3;;;14.4;;
40012;SDS011;37387;42.672;23.334;2022-10-16T02:05:22;25.1;;;13.9;;
40012;SDS011;37387;42.672;23.334;2022-10-16T02:06:20;25.1;;;15.1;;
40012;SDS011;37387;42.672;23.334;2022-10-16T02:07:20;30.8;;;15.9;;
40012;SDS011;37387;42.672;23.334;2022-10-16T02:08:20;32.6;;;16.0;;
40012;SDS011;37387;42.672;23.334;2022-10-16T02:09:20;36.3;;;15.3;;
40012;SDS011;37387;42.672;23.334;2022-10-16T02:10:20;29.7;;;16.4;;
40012;SDS011;37387;42.672;23.334;2022-10-16T02:11:20;33.7;;;16.2;;
40012;SDS011;37387;42.672;23.334;2022-10-16T02:12:21;31.8;;;15.3;;
40012;SDS011;37387;42.672;23.334;2022-10-16T02:13:22;29.1;;;15.1;;
40012;SDS011;37387;42.672;23.334;2022-10-16T02:14:19;29.5;;;15.7;;
40012;SDS011;37387;42.672;23.334;2022-10-16T02:15:19;30.3;;;14.3;;
40012;SDS011;37387;42.672;23.334;2022-10-16T02:16:19;26.8;;;14.8;;
40012;SDS011;37387;42.672;23.334;2022-10-16T02:17:19;28.3;;;14.6;;
40012;SDS011;37387;42.672;23.334;2022-10-16T02:18:19;28.3;;;14.9;;
40012;SDS011;37387;42.672;23.334;2022-10-16T02:19:19;29.5;;;13.8;;
40012;SDS011;37387;42.672;23.334;2022-10-16T02:20:19;29.3;;;14.1;;
40012;SDS011;37387;42.672;23.334;2022-10-16T02:22:21;23.7;;;12.9;;
40012;SDS011;37387;42.672;23.334;2022-10-16T02:23:20;26.0;;;13.3;;
40012;SDS011;37387;42.672;23.334;2022-10-16T02:24:20;26.0;;;12.9;;
40012;SDS011;37387;42.672;23.334;2022-10-16T02:25:20;23.3;;;12.0;;
40012;SDS011;37387;42.672;23.334;2022-10-16T02:26:20;23.3;;;11.7;;
40012;SDS011;37387;42.672;23.334;2022-10-16T02:27:19;22.3;;;10.9;;
40012;SDS011;37387;42.672;23.334;2022-10-16T02:29:20;22.5;;;11.7;;
40012;SDS011;37387;42.672;23.334;2022-10-16T02:30:19;22.5;;;11.6;;
40012;SDS011;37387;42.672;23.334;2022-10-16T02:31:20;22.4;;;11.7;;
40012;SDS011;37387;42.672;23.334;2022-10-16T02:32:19;22.7;;;11.0;;
40012;SDS011;37387;42.672;23.334;2022-10-16T02:33:18;20.8;;;11.4;;
40012;SDS011;37387;42.672;23.334;2022-10-16T02:34:18;20.8;;;10.7;;
40012;SDS011;37387;42.672;23.334;2022-10-16T02:35:19;22.6;;;11.1;;
40012;SDS011;37387;42.672;23.334;2022-10-16T02:36:18;22.6;;;11.0;;
40012;SDS011;37387;42.672;23.334;2022-10-16T02:37:18;22.6;;;10.7;;
40012;SDS011;37387;42.672;23.334;2022-10-16T02:38:18;18.5;;;10.9;;
40012;SDS011;37387;42.672;23.334;2022-10-16T02:39:18;19.3;;;10.1;;
40012;SDS011;37387;42.672;23.334;2022-10-16T02:40:18;18.6;;;10.0;;
40012;SDS011;37387;42.672;23.334;2022-10-16T02:41:18;18.6;;;9.4;;
40012;SDS011;37387;42.672;23.334;2022-10-16T02:42:18;17.3;;;10.0;;
40012;SDS011;37387;42.672;23.334;2022-10-16T02:43:17;18.5;;;9.7;;
40012;SDS011;37387;42.672;23.334;2022-10-16T02:44:17;18.4;;;9.5;;
40012;SDS011;37387;42.672;23.334;2022-10-16T02:45:17;17.4;;;9.7;;
40012;SDS011;37387;42.672;23.334;2022-10-16T02:46:17;17.6;;;9.5;;
40012;SDS011;37387;42.672;23.334;2022-10-16T02:47:17;17.6;;;9.1;;
40012;SDS011;37387;42.672;23.334;2022-10-16T02:48:17;17.7;;;9.6;;
40012;SDS011;37387;42.672;23.334;2022-10-16T02:49:17;18.3;;;9.3;;
40012;SDS011;37387;42.672;23.334;2022-10-16T02:50:17;18.3;;;9.1;;
40012;SDS011;37387;42.672;23.334;2022-10-16T02:51:17;15.6;;;9.3;;
40012;SDS011;37387;42.672;23.334;2022-10-16T02:52:17;17.6;;;9.6;;
40012;SDS011;37387;42.672;23.334;2022-10-16T02:53:17;17.6;;;8.8;;
40012;SDS011;37387;42.672;23.334;2022-10-16T02:54:17;18.3;;;8.6;;
40012;SDS011;37387;42.672;23.334;2022-10-16T02:55:17;17.9;;;9.1;;
40012;SDS011;37387;42.672;23.334;2022-10-16T02:57:17;16.8;;;8.8;;
40012;SDS011;37387;42.672;23.334;2022-10-16T02:58:17;15.5;;;8.9;;
40012;SDS011;37387;42.672;23.334;2022-10-16T02:59:17;17.4;;;8.3;;
40012;SDS011;37387;42.672;23.334;2022-10-16T03:00:17;17.2;;;8.9;;
40012;SDS011;37387;42.672;23.334;2022-10-16T03:02:17;18.3;;;9.6;;
40012;SDS011;37387;42.672;23.334;2022-10-16T03:03:16;19.4;;;8.5;;
40012;SDS011;37387;42.672;23.334;2022-10-16T03:04:16;15.0;;;8.4;;
40012;SDS011;37387;42.672;23.334;2022-10-16T03:05:16;15.0;;;9.1;;
40012;SDS011;37387;42.672;23.334;2022-10-16T03:06:16;15.5;;;8.1;;
40012;SDS011;37387;42.672;23.334;2022-10-16T03:07:16;14.0;;;8.3;;
40012;SDS011;37387;42.672;23.334;2022-10-16T03:08:16;14.8;;;8.0;;
40012;SDS011;37387;42.672;23.334;2022-10-16T03:09:16;15.6;;;8.1;;
40012;SDS011;37387;42.672;23.334;2022-10-16T03:10:16;15.6;;;8.5;;
40012;SDS011;37387;42.672;23.334;2022-10-16T03:12:16;16.8;;;8.8;;
40012;SDS011;37387;42.672;23.334;2022-10-16T03:13:16;16.3;;;8.4;;
40012;SDS011;37387;42.672;23.334;2022-10-16T03:14:16;15.0;;;8.1;;
40012;SDS011;37387;42.672;23.334;2022-10-16T03:15:15;14.1;;;8.0;;
40012;SDS011;37387;42.672;23.334;2022-10-16T03:16:15;14.1;;;8.2;;
40012;SDS011;37387;42.672;23.334;2022-10-16T03:18:15;13.4;;;8.6;;
40012;SDS011;37387;42.672;23.334;2022-10-16T03:19:15;16.6;;;8.2;;
40012;SDS011;37387;42.672;23.334;2022-10-16T03:20:15;16.6;;;7.9;;
40012;SDS011;37387;42.672;23.334;2022-10-16T03:21:15;14.7;;;8.5;;
40012;SDS011;37387;42.672;23.334;2022-10-16T03:23:15;18.8;;;8.4;;
40012;SDS011;37387;42.672;23.334;2022-10-16T03:24:15;18.1;;;8.8;;
40012;SDS011;37387;42.672;23.334;2022-10-16T03:25:15;15.1;;;13.7;;
40012;SDS011;37387;42.672;23.334;2022-10-16T03:26:15;21.7;;;9.6;;
40012;SDS011;37387;42.672;23.334;2022-10-16T03:27:15;18.8;;;9.2;;
40012;SDS011;37387;42.672;23.334;2022-10-16T03:28:15;18.8;;;9.0;;
40012;SDS011;37387;42.672;23.334;2022-10-16T03:30:14;20.2;;;8.9;;
40012;SDS011;37387;42.672;23.334;2022-10-16T03:31:14;16.4;;;9.3;;
40012;SDS011;37387;42.672;23.334;2022-10-16T03:32:14;17.8;;;10.9;;
40012;SDS011;37387;42.672;23.334;2022-10-16T03:33:14;17.8;;;10.2;;
40012;SDS011;37387;42.672;23.334;2022-10-16T03:34:14;17.8;;;9.2;;
40012;SDS011;37387;42.672;23.334;2022-10-16T03:35:14;13.5;;;9.3;;
40012;SDS011;37387;42.672;23.334;2022-10-16T03:36:14;14.9;;;9.6;;
40012;SDS011;37387;42.672;23.334;2022-10-16T03:37:14;18.2;;;9.8;;
40012;SDS011;37387;42.672;23.334;2022-10-16T03:38:14;14.5;;;8.8;;
40012;SDS011;37387;42.672;23.334;2022-10-16T03:39:14;14.5;;;8.5;;
40012;SDS011;37387;42.672;23.334;2022-10-16T03:40:14;15.5;;;8.6;;
40012;SDS011;37387;42.672;23.334;2022-10-16T03:41:14;16.7;;;8.1;;
40012;SDS011;37387;42.672;23.334;2022-10-16T03:42:13;16.7;;;7.8;;
40012;SDS011;37387;42.672;23.334;2022-10-16T03:43:13;13.9;;;8.3;;
40012;SDS011;37387;42.672;23.334;2022-10-16T03:44:13;15.7;;;8.4;;
40012;SDS011;37387;42.672;23.334;2022-10-16T03:45:13;15.7;;;8.3;;
40012;SDS011;37387;42.672;23.334;2022-10-16T03:46:13;15.7;;;8.5;;
40012;SDS011;37387;42.672;23.334;2022-10-16T03:47:13;15.6;;;8.6;;
40012;SDS011;37387;42.672;23.334;2022-10-16T03:48:13;15.6;;;8.0;;
40012;SDS011;37387;42.672;23.334;2022-10-16T03:49:13;19.2;;;8.7;;
40012;SDS011;37387;42.672;23.334;2022-10-16T03:50:13;19.2;;;8.4;;
40012;SDS011;37387;42.672;23.334;2022-10-16T03:52:13;15.3;;;8.6;;
40012;SDS011;37387;42.672;23.334;2022-10-16T03:53:13;14.9;;;9.1;;
40012;SDS011;37387;42.672;23.334;2022-10-16T03:54:13;14.9;;;8.8;;
40012;SDS011;37387;42.672;23.334;2022-10-16T03:55:13;15.6;;;8.6;;
40012;SDS011;37387;42.672;23.334;2022-10-16T03:56:12;15.2;;;9.1;;
40012;SDS011;37387;42.672;23.334;2022-10-16T03:57:12;19.4;;;9.3;;
40012;SDS011;37387;42.672;23.334;2022-10-16T03:58:12;19.9;;;9.7;;
40012;SDS011;37387;42.672;23.334;2022-10-16T03:59:12;19.9;;;9.0;;
40012;SDS011;37387;42.672;23.334;2022-10-16T04:00:12;16.0;;;9.1;;
40012;SDS011;37387;42.672;23.334;2022-10-16T04:01:12;17.1;;;9.3;;
40012;SDS011;37387;42.672;23.334;2022-10-16T04:02:12;17.1;;;8.4;;
40012;SDS011;37387;42.672;23.334;2022-10-16T04:03:12;14.9;;;9.1;;
40012;SDS011;37387;42.672;23.334;2022-10-16T04:05:12;16.6;;;10.2;;
40012;SDS011;37387;42.672;23.334;2022-10-16T04:06:12;19.8;;;9.1;;
40012;SDS011;37387;42.672;23.334;2022-10-16T04:07:12;15.3;;;8.9;;
40012;SDS011;37387;42.672;23.334;2022-10-16T04:08:12;19.4;;;9.1;;
40012;SDS011;37387;42.672;23.334;2022-10-16T04:09:12;19.4;;;9.7;;
40012;SDS011;37387;42.672;23.334;2022-10-16T04:10:11;21.1;;;9.3;;
40012;SDS011;37387;42.672;23.334;2022-10-16T04:11:11;19.0;;;9.2;;
40012;SDS011;37387;42.672;23.334;2022-10-16T04:12:11;18.0;;;9.6;;
40012;SDS011;37387;42.672;23.334;2022-10-16T04:13:11;18.0;;;10.1;;
40012;SDS011;37387;42.672;23.334;2022-10-16T04:14:11;22.1;;;9.2;;
40012;SDS011;37387;42.672;23.334;2022-10-16T04:15:11;16.1;;;8.6;;
40012;SDS011;37387;42.672;23.334;2022-10-16T04:16:11;18.9;;;8.8;;
40012;SDS011;37387;42.672;23.334;2022-10-16T04:17:11;17.0;;;8.7;;
40012;SDS011;37387;42.672;23.334;2022-10-16T04:18:11;16.5;;;9.3;;
40012;SDS011;37387;42.672;23.334;2022-10-16T04:19:11;19.3;;;9.0;;
40012;SDS011;37387;42.672;23.334;2022-10-16T04:20:11;16.0;;;9.1;;
40012;SDS011;37387;42.672;23.334;2022-10-16T04:21:11;16.0;;;8.9;;
40012;SDS011;37387;42.672;23.334;2022-10-16T04:22:10;16.1;;;9.2;;
40012;SDS011;37387;42.672;23.334;2022-10-16T04:23:11;18.3;;;8.7;;
40012;SDS011;37387;42.672;23.334;2022-10-16T04:24:10;18.3;;;9.6;;
40012;SDS011;37387;42.672;23.334;2022-10-16T04:25:10;17.5;;;9.2;;
40012;SDS011;37387;42.672;23.334;2022-10-16T04:26:10;16.7;;;8.1;;
40012;SDS011;37387;42.672;23.334;2022-10-16T04:27:10;16.7;;;9.6;;
40012;SDS011;37387;42.672;23.334;2022-10-16T04:28:10;17.9;;;9.7;;
40012;SDS011;37387;42.672;23.334;2022-10-16T04:29:10;16.5;;;9.3;;
40012;SDS011;37387;42.672;23.334;2022-10-16T04:30:10;20.3;;;9.7;;
40012;SDS011;37387;42.672;23.334;2022-10-16T04:31:10;20.3;;;10.3;;
40012;SDS011;37387;42.672;23.334;2022-10-16T04:32:10;19.8;;;10.7;;
40012;SDS011;37387;42.672;23.334;2022-10-16T04:33:10;21.3;;;10.8;;
40012;SDS011;37387;42.672;23.334;2022-10-16T04:34:10;20.9;;;10.3;;
40012;SDS011;37387;42.672;23.334;2022-10-16T04:35:10;22.1;;;9.6;;
40012;SDS011;37387;42.672;23.334;2022-10-16T04:36:10;18.4;;;9.9;;
40012;SDS011;37387;42.672;23.334;2022-10-16T04:37:09;18.4;;;10.1;;
40012;SDS011;37387;42.672;23.334;2022-10-16T04:38:09;19.1;;;10.3;;
40012;SDS011;37387;42.672;23.334;2022-10-16T04:39:09;18.6;;;10.6;;
40012;SDS011;37387;42.672;23.334;2022-10-16T04:40:09;22.3;;;10.0;;
40012;SDS011;37387;42.672;23.334;2022-10-16T04:41:09;19.2;;;9.8;;
40012;SDS011;37387;42.672;23.334;2022-10-16T04:42:09;20.0;;;9.5;;
40012;SDS011;37387;42.672;23.334;2022-10-16T04:43:09;20.0;;;9.0;;
40012;SDS011;37387;42.672;23.334;2022-10-16T04:44:09;20.4;;;9.8;;
40012;SDS011;37387;42.672;23.334;2022-10-16T04:46:09;17.7;;;9.7;;
40012;SDS011;37387;42.672;23.334;2022-10-16T04:47:09;20.2;;;10.3;;
40012;SDS011;37387;42.672;23.334;2022-10-16T04:48:09;21.2;;;10.6;;
40012;SDS011;37387;42.672;23.334;2022-10-16T04:49:09;19.0;;;10.1;;
40012;SDS011;37387;42.672;23.334;2022-10-16T04:50:08;19.0;;;9.8;;
40012;SDS011;37387;42.672;23.334;2022-10-16T04:51:08;18.2;;;10.3;;
40012;SDS011;37387;42.672;23.334;2022-10-16T04:52:08;18.2;;;10.4;;
40012;SDS011;37387;42.672;23.334;2022-10-16T04:53:08;21.7;;;11.2;;
40012;SDS011;37387;42.672;23.334;2022-10-16T04:54:08;21.7;;;58.8;;
40012;SDS011;37387;42.672;23.334;2022-10-16T04:55:08;119.8;;;25.0;;
40012;SDS011;37387;42.672;23.334;2022-10-16T04:56:08;48.7;;;33.1;;
40012;SDS011;37387;42.672;23.334;2022-10-16T04:57:08;70.3;;;13.4;;
40012;SDS011;37387;42.672;23.334;2022-10-16T04:58:08;24.5;;;11.1;;
40012;SDS011;37387;42.672;23.334;2022-10-16T04:59:08;20.0;;;11.2;;
40012;SDS011;37387;42.672;23.334;2022-10-16T05:00:08;22.5;;;11.7;;
40012;SDS011;37387;42.672;23.334;2022-10-16T05:01:08;22.5;;;11.8;;
40012;SDS011;37387;42.672;23.334;2022-10-16T05:02:08;22.4;;;9.2;;
40012;SDS011;37387;42.672;23.334;2022-10-16T05:03:07;14.8;;;8.1;;
40012;SDS011;37387;42.672;23.334;2022-10-16T05:04:08;14.8;;;7.7;;
40012;SDS011;37387;42.672;23.334;2022-10-16T05:05:08;17.0;;;7.5;;
40012;SDS011;37387;42.672;23.334;2022-10-16T05:06:07;12.2;;;7.0;;
40012;SDS011;37387;42.672;23.334;2022-10-16T05:07:07;12.2;;;6.8;;
40012;SDS011;37387;42.672;23.334;2022-10-16T05:08:07;13.1;;;7.4;;
40012;SDS011;37387;42.672;23.334;2022-10-16T05:09:07;133.8;;;68.5;;
40012;SDS011;37387;42.672;23.334;2022-10-16T05:10:07;133.8;;;29.9;;
40012;SDS011;37387;42.672;23.334;2022-10-16T05:11:07;60.6;;;11.0;;
40012;SDS011;37387;42.672;23.334;2022-10-16T05:12:07;11.3;;;6.5;;
40012;SDS011;37387;42.672;23.334;2022-10-16T05:13:07;11.3;;;5.7;;
40012;SDS011;37387;42.672;23.334;2022-10-16T05:14:07;9.4;;;6.0;;
40012;SDS011;37387;42.672;23.334;2022-10-16T05:15:07;11.2;;;6.6;;
40012;SDS011;37387;42.672;23.334;2022-10-16T05:16:07;14.0;;;7.0;;
40012;SDS011;37387;42.672;23.334;2022-10-16T05:17:07;11.5;;;6.4;;
40012;SDS011;37387;42.672;23.334;2022-10-16T05:18:08;11.6;;;6.9;;
40012;SDS011;37387;42.672;23.334;2022-10-16T05:19:07;11.6;;;5.9;;
40012;SDS011;37387;42.672;23.334;2022-10-16T05:20:07;12.3;;;6.7;;
40012;SDS011;37387;42.672;23.334;2022-10-16T05:21:07;12.3;;;7.0;;
40012;SDS011;37387;42.672;23.334;2022-10-16T05:22:07;11.2;;;5.8;;
40012;SDS011;37387;42.672;23.334;2022-10-16T05:23:07;10.8;;;6.4;;
40012;SDS011;37387;42.672;23.334;2022-10-16T05:24:07;12.1;;;6.5;;
40012;SDS011;37387;42.672;23.334;2022-10-16T05:25:07;12.1;;;6.1;;
40012;SDS011;37387;42.672;23.334;2022-10-16T05:26:07;12.6;;;6.4;;
40012;SDS011;37387;42.672;23.334;2022-10-16T05:27:07;11.8;;;6.5;;
40012;SDS011;37387;42.672;23.334;2022-10-16T05:28:07;12.1;;;6.6;;
40012;SDS011;37387;42.672;23.334;2022-10-16T05:29:07;12.4;;;6.1;;
40012;SDS011;37387;42.672;23.334;2022-10-16T05:31:07;10.6;;;6.5;;
40012;SDS011;37387;42.672;23.334;2022-10-16T05:32:07;11.6;;;6.3;;
40012;SDS011;37387;42.672;23.334;2022-10-16T05:33:07;12.8;;;6.1;;
40012;SDS011;37387;42.672;23.334;2022-10-16T05:34:07;10.3;;;6.0;;
40012;SDS011;37387;42.672;23.334;2022-10-16T05:35:07;10.6;;;5.9;;
40012;SDS011;37387;42.672;23.334;2022-10-16T05:36:08;14.1;;;5.8;;
40012;SDS011;37387;42.672;23.334;2022-10-16T05:37:08;14.1;;;6.1;;
40012;SDS011;37387;42.672;23.334;2022-10-16T05:38:07;14.6;;;5.6;;
40012;SDS011;37387;42.672;23.334;2022-10-16T05:39:07;11.8;;;5.8;;
40012;SDS011;37387;42.672;23.334;2022-10-16T05:40:07;11.2;;;5.9;;
40012;SDS011;37387;42.672;23.334;2022-10-16T05:41:07;10.5;;;5.2;;
40012;SDS011;37387;42.672;23.334;2022-10-16T05:42:07;10.7;;;5.7;;
40012;SDS011;37387;42.672;23.334;2022-10-16T05:43:07;10.7;;;6.0;;
40012;SDS011;37387;42.672;23.334;2022-10-16T05:44:07;9.8;;;5.1;;
40012;SDS011;37387;42.672;23.334;2022-10-16T05:45:08;7.4;;;5.7;;
40012;SDS011;37387;42.672;23.334;2022-10-16T05:46:07;10.3;;;6.1;;
40012;SDS011;37387;42.672;23.334;2022-10-16T05:47:07;11.2;;;5.5;;
40012;SDS011;37387;42.672;23.334;2022-10-16T05:48:07;8.6;;;5.4;;
40012;SDS011;37387;42.672;23.334;2022-10-16T05:52:08;10.1;;;5.9;;
40012;SDS011;37387;42.672;23.334;2022-10-16T05:53:08;10.0;;;5.6;;
40012;SDS011;37387;42.672;23.334;2022-10-16T05:54:08;10.0;;;5.9;;
40012;SDS011;37387;42.672;23.334;2022-10-16T05:55:08;11.0;;;6.5;;
40012;SDS011;37387;42.672;23.334;2022-10-16T05:56:09;13.7;;;6.0;;
40012;SDS011;37387;42.672;23.334;2022-10-16T05:57:08;13.7;;;6.6;;
40012;SDS011;37387;42.672;23.334;2022-10-16T05:58:08;10.1;;;5.7;;
40012;SDS011;37387;42.672;23.334;2022-10-16T05:59:08;8.4;;;5.5;;
40012;SDS011;37387;42.672;23.334;2022-10-16T06:01:09;7.8;;;5.2;;
40012;SDS011;37387;42.672;23.334;2022-10-16T06:02:09;8.2;;;6.1;;
40012;SDS011;37387;42.672;23.334;2022-10-16T06:03:08;11.2;;;5.0;;
40012;SDS011;37387;42.672;23.334;2022-10-16T06:04:09;8.7;;;5.8;;
40012;SDS011;37387;42.672;23.334;2022-10-16T06:05:09;8.7;;;5.4;;
40012;SDS011;37387;42.672;23.334;2022-10-16T06:06:09;9.0;;;5.3;;
40012;SDS011;37387;42.672;23.334;2022-10-16T06:07:09;10.0;;;5.1;;
40012;SDS011;37387;42.672;23.334;2022-10-16T06:08:09;10.0;;;5.3;;
40012;SDS011;37387;42.672;23.334;2022-10-16T06:09:09;9.0;;;5.4;;
40012;SDS011;37387;42.672;23.334;2022-10-16T06:10:09;8.1;;;5.1;;
40012;SDS011;37387;42.672;23.334;2022-10-16T06:11:10;7.7;;;4.9;;
40012;SDS011;37387;42.672;23.334;2022-10-16T06:13:10;7.0;;;5.1;;
40012;SDS011;37387;42.672;23.334;2022-10-16T06:14:10;9.2;;;4.7;;
40012;SDS011;37387;42.672;23.334;2022-10-16T06:16:10;7.1;;;4.9;;
40012;SDS011;37387;42.672;23.334;2022-10-16T06:18:10;9.8;;;5.2;;
40012;SDS011;37387;42.672;23.334;2022-10-16T06:19:10;8.4;;;4.9;;
40012;SDS011;37387;42.672;23.334;2022-10-16T06:20:10;8.4;;;4.8;;
40012;SDS011;37387;42.672;23.334;2022-10-16T06:21:11;7.6;;;5.1;;
40012;SDS011;37387;42.672;23.334;2022-10-16T06:22:10;7.6;;;5.2;;
40012;SDS011;37387;42.672;23.334;2022-10-16T06:23:10;9.8;;;4.6;;
40012;SDS011;37387;42.672;23.334;2022-10-16T06:24:11;8.8;;;5.4;;